Deer Park, Louisiana
Current Conditions -  °F | °C
As of 9:55 PM on Friday 24 Oct 2014 (Local Time) from KHEZ Reporting Station
Clear Clear  
Wind Chill: 52°   Ceiling: Unl
Heat Index: 52°   Visibility: 10mi
Dew Point: 46°   Wind: 0mph
Humidity: 82%   Direction: NA
Pressure: 30.14"   Gusts: NA
Location:  31.5712°N, 91.5148°W
Report Text: KHEZ 250255Z AUTO 00000KT 10SM CLR 11/08 A3014 RMK AO1 52014
Loading
Personal Weather Stations






























Interactive Weather Map
Tropical Storm Tracking
New forecast layout! Learn more

10-Day Weather Forecast

Advertisements
Track Severe Weather on mobile